SAS572 EFHK-ESSA
Flight info
| Callsign | SAS572 |
|---|---|
| Flight time | 0h 47m |
| Altitude | 30000 |
| Route | ADIVO Y365 POGOK DCT RUNGA N872 XILAN |
| Aircraft | CRJ9/M-SDFGIRWY/S |
Departure
| Time | 2026-05-06 11:43 |
|---|---|
| Airport | Helsinki Vantaa Airport (EFHK) |
Arrival
| Time | 2026-05-06 12:31 |
|---|---|
| Airport | Stockholm-Arlanda Airport (ESSA) |
| Time | Latitude | Longitude | Altitude | Speed | Heading |
|---|---|---|---|---|---|
| 2026-05-06 11:04 | 60.31937 | 24.96372 | 165 ft | 0 kts | 137° |
| 2026-05-06 11:36 | 60.31907 | 24.96409 | 165 ft | 5 kts | 188° |
| 2026-05-06 11:37 | 60.31877 | 24.96370 | 165 ft | 5 kts | 226° |
| 2026-05-06 11:37 | 60.31859 | 24.96315 | 165 ft | 5 kts | 253° |
| 2026-05-06 11:37 | 60.31853 | 24.96247 | 165 ft | 5 kts | 266° |
| 2026-05-06 11:37 | 60.31859 | 24.96174 | 165 ft | 5 kts | 299° |
| 2026-05-06 11:38 | 60.31890 | 24.96097 | 165 ft | 9 kts | 317° |
| 2026-05-06 11:38 | 60.31948 | 24.95993 | 168 ft | 12 kts | 317° |
| 2026-05-06 11:38 | 60.32011 | 24.95877 | 171 ft | 14 kts | 317° |
| 2026-05-06 11:38 | 60.32091 | 24.95728 | 172 ft | 18 kts | 317° |
| 2026-05-06 11:39 | 60.32197 | 24.95531 | 172 ft | 23 kts | 317° |
| 2026-05-06 11:39 | 60.32321 | 24.95304 | 175 ft | 25 kts | 322° |
| 2026-05-06 11:39 | 60.32491 | 24.95175 | 178 ft | 26 kts | 342° |
| 2026-05-06 11:39 | 60.32661 | 24.95065 | 178 ft | 26 kts | 342° |
| 2026-05-06 11:40 | 60.32829 | 24.94956 | 174 ft | 20 kts | 342° |
| 2026-05-06 11:40 | 60.32897 | 24.94903 | 173 ft | 5 kts | 317° |
| 2026-05-06 11:40 | 60.32914 | 24.94872 | 174 ft | 1 kts | 318° |
| 2026-05-06 11:40 | 60.32944 | 24.94819 | 175 ft | 13 kts | 318° |
| 2026-05-06 11:41 | 60.33040 | 24.94629 | 181 ft | 16 kts | 294° |
| 2026-05-06 11:41 | 60.33050 | 24.94426 | 186 ft | 14 kts | 273° |
| 2026-05-06 11:41 | 60.33036 | 24.94244 | 186 ft | 14 kts | 232° |
| 2026-05-06 11:41 | 60.32971 | 24.94080 | 185 ft | 7 kts | 231° |
| 2026-05-06 11:42 | 60.32969 | 24.94077 | 185 ft | 1 kts | 231° |
| 2026-05-06 11:42 | 60.32950 | 24.94029 | 183 ft | 8 kts | 230° |
| 2026-05-06 11:42 | 60.32903 | 24.93922 | 182 ft | 17 kts | 228° |
| 2026-05-06 11:42 | 60.32643 | 24.93352 | 179 ft | 96 kts | 227° |
| 2026-05-06 11:43 | 60.32033 | 24.92020 | 163 ft | 161 kts | 227° |
| 2026-05-06 11:43 | 60.31198 | 24.90201 | 660 ft | 187 kts | 227° |
| 2026-05-06 11:43 | 60.30382 | 24.88194 | 1702 ft | 183 kts | 240° |
| 2026-05-06 11:44 | 60.30584 | 24.83087 | 3300 ft | 209 kts | 308° |
| 2026-05-06 11:44 | 60.31784 | 24.81220 | 3998 ft | 231 kts | 337° |
| 2026-05-06 11:44 | 60.33444 | 24.80584 | 4670 ft | 257 kts | 351° |
| 2026-05-06 11:44 | 60.35027 | 24.78924 | 5251 ft | 255 kts | 310° |
| 2026-05-06 11:45 | 60.35701 | 24.76098 | 5523 ft | 247 kts | 277° |
| 2026-05-06 11:45 | 60.35504 | 24.72685 | 5593 ft | 249 kts | 246° |
| 2026-05-06 11:45 | 60.34582 | 24.69807 | 5961 ft | 238 kts | 225° |
| 2026-05-06 11:45 | 60.33131 | 24.68232 | 5974 ft | 245 kts | 188° |
| 2026-05-06 11:46 | 60.31453 | 24.68737 | 6022 ft | 248 kts | 161° |
| 2026-05-06 11:46 | 60.29763 | 24.68996 | 6141 ft | 248 kts | 194° |
| 2026-05-06 11:46 | 60.28257 | 24.67344 | 6228 ft | 250 kts | 224° |
| 2026-05-06 11:46 | 60.27254 | 24.64503 | 6353 ft | 252 kts | 245° |
| 2026-05-06 11:47 | 60.26565 | 24.61219 | 6395 ft | 257 kts | 248° |
| 2026-05-06 11:47 | 60.25939 | 24.57819 | 6507 ft | 260 kts | 250° |
| 2026-05-06 11:47 | 60.25386 | 24.54395 | 6648 ft | 261 kts | 253° |
| 2026-05-06 11:47 | 60.25145 | 24.50840 | 6957 ft | 253 kts | 277° |
| 2026-05-06 11:48 | 60.25564 | 24.47525 | 7487 ft | 237 kts | 286° |
| 2026-05-06 11:48 | 60.25995 | 24.44428 | 7980 ft | 223 kts | 284° |
| 2026-05-06 11:48 | 60.26313 | 24.41725 | 8425 ft | 210 kts | 281° |
| 2026-05-06 11:48 | 60.26568 | 24.38933 | 8891 ft | 195 kts | 278° |
| 2026-05-06 11:49 | 60.26767 | 24.36357 | 9328 ft | 178 kts | 278° |
| 2026-05-06 11:49 | 60.26953 | 24.33943 | 9584 ft | 180 kts | 278° |
| 2026-05-06 11:49 | 60.27149 | 24.31381 | 10043 ft | 190 kts | 278° |
| 2026-05-06 11:49 | 60.27348 | 24.28685 | 10603 ft | 198 kts | 278° |
| 2026-05-06 11:50 | 60.27549 | 24.25936 | 11162 ft | 205 kts | 277° |
| 2026-05-06 11:50 | 60.27766 | 24.23041 | 11733 ft | 213 kts | 278° |
| 2026-05-06 11:50 | 60.28001 | 24.20051 | 12299 ft | 220 kts | 278° |
| 2026-05-06 11:50 | 60.28246 | 24.16960 | 12861 ft | 227 kts | 278° |
| 2026-05-06 11:51 | 60.28498 | 24.13767 | 13422 ft | 234 kts | 278° |
| 2026-05-06 11:51 | 60.28759 | 24.10475 | 13974 ft | 241 kts | 278° |
| 2026-05-06 11:51 | 60.29007 | 24.07325 | 14326 ft | 256 kts | 278° |
| 2026-05-06 11:51 | 60.29296 | 24.03620 | 14401 ft | 283 kts | 278° |
| 2026-05-06 11:52 | 60.29571 | 23.99510 | 14483 ft | 309 kts | 271° |
| 2026-05-06 11:52 | 60.29444 | 23.95091 | 14580 ft | 332 kts | 262° |
| 2026-05-06 11:52 | 60.29040 | 23.90340 | 14677 ft | 355 kts | 257° |
| 2026-05-06 11:52 | 60.28464 | 23.85351 | 14822 ft | 374 kts | 256° |
| 2026-05-06 11:53 | 60.27847 | 23.80229 | 15436 ft | 378 kts | 256° |
| 2026-05-06 11:53 | 60.27225 | 23.75059 | 16040 ft | 382 kts | 256° |
| 2026-05-06 11:53 | 60.26683 | 23.70261 | 16558 ft | 386 kts | 257° |
| 2026-05-06 11:53 | 60.26102 | 23.64952 | 17104 ft | 390 kts | 257° |
| 2026-05-06 11:54 | 60.25521 | 23.59659 | 17620 ft | 394 kts | 257° |
| 2026-05-06 11:54 | 60.24921 | 23.54258 | 18125 ft | 398 kts | 257° |
| 2026-05-06 11:54 | 60.24315 | 23.48805 | 18610 ft | 401 kts | 257° |
| 2026-05-06 11:54 | 60.23703 | 23.43308 | 19072 ft | 404 kts | 257° |
| 2026-05-06 11:55 | 60.23097 | 23.37895 | 19504 ft | 408 kts | 257° |
| 2026-05-06 11:55 | 60.22515 | 23.32716 | 19894 ft | 411 kts | 257° |
| 2026-05-06 11:55 | 60.21915 | 23.27387 | 20280 ft | 414 kts | 257° |
| 2026-05-06 11:55 | 60.21271 | 23.21726 | 20669 ft | 417 kts | 257° |
| 2026-05-06 11:56 | 60.20632 | 23.16104 | 21034 ft | 420 kts | 257° |
| 2026-05-06 11:56 | 60.19977 | 23.10380 | 21390 ft | 422 kts | 257° |
| 2026-05-06 11:56 | 60.19315 | 23.04609 | 21730 ft | 425 kts | 257° |
| 2026-05-06 11:56 | 60.18698 | 22.99288 | 22028 ft | 427 kts | 257° |
| 2026-05-06 11:57 | 60.18026 | 22.93450 | 22343 ft | 430 kts | 257° |
| 2026-05-06 11:57 | 60.17343 | 22.87586 | 22647 ft | 432 kts | 257° |
| 2026-05-06 11:57 | 60.16656 | 22.81695 | 22934 ft | 435 kts | 256° |
| 2026-05-06 11:57 | 60.15971 | 22.75853 | 23211 ft | 437 kts | 257° |
| 2026-05-06 11:58 | 60.15266 | 22.69893 | 23475 ft | 439 kts | 256° |
| 2026-05-06 11:58 | 60.14620 | 22.64362 | 23713 ft | 441 kts | 256° |
| 2026-05-06 11:58 | 60.13910 | 22.58361 | 23958 ft | 443 kts | 256° |
| 2026-05-06 11:58 | 60.13190 | 22.52329 | 24179 ft | 445 kts | 256° |
| 2026-05-06 11:59 | 60.12462 | 22.46284 | 24380 ft | 447 kts | 256° |
| 2026-05-06 11:59 | 60.11731 | 22.40209 | 24574 ft | 448 kts | 256° |
| 2026-05-06 11:59 | 60.10997 | 22.34153 | 24954 ft | 444 kts | 256° |
| 2026-05-06 11:59 | 60.10331 | 22.28632 | 25484 ft | 436 kts | 256° |
| 2026-05-06 12:00 | 60.09626 | 22.22857 | 26039 ft | 428 kts | 256° |
| 2026-05-06 12:00 | 60.08923 | 22.17101 | 26558 ft | 423 kts | 256° |
| 2026-05-06 12:00 | 60.08216 | 22.11339 | 26550 ft | 430 kts | 256° |
| 2026-05-06 12:00 | 60.07698 | 22.07145 | 26543 ft | 435 kts | 256° |
| 2026-05-06 12:01 | 60.06967 | 22.01208 | 26310 ft | 446 kts | 256° |
| 2026-05-06 12:01 | 60.06282 | 21.95697 | 26294 ft | 452 kts | 256° |
| 2026-05-06 12:01 | 60.05515 | 21.89549 | 26255 ft | 458 kts | 256° |
| 2026-05-06 12:01 | 60.04754 | 21.83455 | 26218 ft | 464 kts | 256° |
| 2026-05-06 12:02 | 60.03793 | 21.75825 | 26829 ft | 253 kts | 256° |
| 2026-05-06 12:02 | 60.03359 | 21.72342 | 26760 ft | 266 kts | 256° |
| 2026-05-06 12:02 | 60.02918 | 21.68692 | 26712 ft | 278 kts | 256° |
| 2026-05-06 12:02 | 60.02489 | 21.64962 | 27127 ft | 270 kts | 257° |
| 2026-05-06 12:03 | 60.02130 | 21.61595 | 27643 ft | 258 kts | 258° |
| 2026-05-06 12:03 | 60.01795 | 21.58122 | 27811 ft | 261 kts | 259° |
| 2026-05-06 12:03 | 60.01482 | 21.54442 | 27659 ft | 277 kts | 261° |
| 2026-05-06 12:03 | 60.01195 | 21.50581 | 27744 ft | 281 kts | 262° |
| 2026-05-06 12:04 | 60.00957 | 21.46771 | 28236 ft | 269 kts | 263° |
| 2026-05-06 12:04 | 60.00774 | 21.43115 | 28640 ft | 262 kts | 265° |
| 2026-05-06 12:04 | 60.00636 | 21.39440 | 28623 ft | 271 kts | 266° |
| 2026-05-06 12:04 | 60.00539 | 21.35625 | 28496 ft | 284 kts | 267° |
| 2026-05-06 12:05 | 60.00484 | 21.31668 | 28733 ft | 282 kts | 269° |
| 2026-05-06 12:05 | 60.00478 | 21.27836 | 29222 ft | 270 kts | 270° |
| 2026-05-06 12:05 | 60.00516 | 21.24365 | 29460 ft | 268 kts | 271° |
| 2026-05-06 12:05 | 60.00604 | 21.20577 | 29357 ft | 280 kts | 273° |
| 2026-05-06 12:06 | 60.00746 | 21.16620 | 29289 ft | 289 kts | 274° |
| 2026-05-06 12:06 | 60.00868 | 21.13984 | 29460 ft | 286 kts | 275° |
| 2026-05-06 12:06 | 60.01090 | 21.10103 | 29912 ft | 275 kts | 277° |
| 2026-05-06 12:06 | 60.01355 | 21.06356 | 30164 ft | 272 kts | 278° |
| 2026-05-06 12:07 | 60.01792 | 21.01306 | 30018 ft | 288 kts | 280° |
| 2026-05-06 12:07 | 60.02014 | 20.97241 | 29813 ft | 302 kts | 265° |
| 2026-05-06 12:07 | 60.01410 | 20.93213 | 29722 ft | 310 kts | 234° |
| 2026-05-06 12:07 | 60.00028 | 20.90486 | 29538 ft | 322 kts | 207° |
| 2026-05-06 12:08 | 59.98652 | 20.89265 | 29401 ft | 332 kts | 199° |
| 2026-05-06 12:08 | 59.96409 | 20.87685 | 29087 ft | 352 kts | 201° |
| 2026-05-06 12:08 | 59.94111 | 20.85541 | 28598 ft | 377 kts | 212° |
| 2026-05-06 12:08 | 59.91942 | 20.82352 | 28115 ft | 399 kts | 224° |
| 2026-05-06 12:09 | 59.90278 | 20.77783 | 27622 ft | 421 kts | 245° |
| 2026-05-06 12:09 | 59.89122 | 20.70184 | 26992 ft | 447 kts | 257° |
| 2026-05-06 12:09 | 59.88659 | 20.66131 | 26663 ft | 459 kts | 257° |
| 2026-05-06 12:09 | 59.87809 | 20.58946 | 26965 ft | 254 kts | 256° |
| 2026-05-06 12:10 | 59.87426 | 20.55825 | 26930 ft | 264 kts | 255° |
| 2026-05-06 12:10 | 59.86947 | 20.52437 | 26905 ft | 277 kts | 252° |
| 2026-05-06 12:10 | 59.86343 | 20.48675 | 26594 ft | 302 kts | 251° |
| 2026-05-06 12:10 | 59.85675 | 20.44526 | 26279 ft | 328 kts | 253° |
| 2026-05-06 12:11 | 59.85007 | 20.40017 | 25974 ft | 352 kts | 254° |
| 2026-05-06 12:11 | 59.84324 | 20.35169 | 25664 ft | 375 kts | 254° |
| 2026-05-06 12:11 | 59.83572 | 20.30060 | 25346 ft | 396 kts | 253° |
| 2026-05-06 12:11 | 59.82760 | 20.24650 | 24884 ft | 420 kts | 253° |
| 2026-05-06 12:12 | 59.81981 | 20.19375 | 24430 ft | 437 kts | 253° |
| 2026-05-06 12:12 | 59.81107 | 20.13481 | 23861 ft | 452 kts | 253° |
| 2026-05-06 12:12 | 59.80501 | 20.09364 | 24444 ft | 257 kts | 253° |
| 2026-05-06 12:12 | 59.80007 | 20.06012 | 24938 ft | 249 kts | 253° |
| 2026-05-06 12:13 | 59.79509 | 20.02676 | 25046 ft | 261 kts | 253° |
| 2026-05-06 12:13 | 59.78969 | 19.99091 | 24944 ft | 280 kts | 253° |
| 2026-05-06 12:13 | 59.78391 | 19.95205 | 24728 ft | 305 kts | 253° |
| 2026-05-06 12:13 | 59.77790 | 19.91140 | 24876 ft | 314 kts | 253° |
| 2026-05-06 12:14 | 59.77141 | 19.86871 | 24581 ft | 340 kts | 253° |
| 2026-05-06 12:14 | 59.76477 | 19.82559 | 23890 ft | 360 kts | 253° |
| 2026-05-06 12:14 | 59.75748 | 19.77825 | 23467 ft | 356 kts | 253° |
| 2026-05-06 12:14 | 59.75039 | 19.73149 | 23028 ft | 353 kts | 253° |
| 2026-05-06 12:15 | 59.74356 | 19.68647 | 23192 ft | 331 kts | 253° |
| 2026-05-06 12:15 | 59.73682 | 19.64236 | 22281 ft | 341 kts | 253° |
| 2026-05-06 12:15 | 59.73012 | 19.59746 | 21692 ft | 339 kts | 253° |
| 2026-05-06 12:15 | 59.72411 | 19.55295 | 21162 ft | 337 kts | 256° |
| 2026-05-06 12:16 | 59.71890 | 19.50939 | 20392 ft | 346 kts | 257° |
| 2026-05-06 12:16 | 59.71392 | 19.46502 | 19742 ft | 350 kts | 257° |
| 2026-05-06 12:16 | 59.70898 | 19.41848 | 19699 ft | 333 kts | 258° |
| 2026-05-06 12:16 | 59.70469 | 19.37527 | 19954 ft | 312 kts | 259° |
| 2026-05-06 12:17 | 59.70069 | 19.33356 | 19994 ft | 293 kts | 258° |
| 2026-05-06 12:17 | 59.69675 | 19.29412 | 19406 ft | 303 kts | 259° |
| 2026-05-06 12:17 | 59.69315 | 19.25368 | 18592 ft | 321 kts | 259° |
| 2026-05-06 12:17 | 59.68915 | 19.21029 | 17933 ft | 328 kts | 258° |
| 2026-05-06 12:18 | 59.68478 | 19.16528 | 17105 ft | 339 kts | 261° |
| 2026-05-06 12:18 | 59.68299 | 19.12268 | 16738 ft | 335 kts | 271° |
| 2026-05-06 12:18 | 59.68605 | 19.07717 | 16323 ft | 330 kts | 288° |
| 2026-05-06 12:18 | 59.69596 | 19.03970 | 16499 ft | 311 kts | 304° |
| 2026-05-06 12:19 | 59.70893 | 19.00639 | 16021 ft | 314 kts | 308° |
| 2026-05-06 12:19 | 59.72183 | 18.97103 | 15458 ft | 319 kts | 302° |
| 2026-05-06 12:19 | 59.73317 | 18.93290 | 14893 ft | 323 kts | 298° |
| 2026-05-06 12:19 | 59.74389 | 18.89346 | 14315 ft | 326 kts | 297° |
| 2026-05-06 12:20 | 59.75437 | 18.85430 | 13737 ft | 326 kts | 297° |
| 2026-05-06 12:20 | 59.76511 | 18.81492 | 13144 ft | 323 kts | 298° |
| 2026-05-06 12:20 | 59.77464 | 18.78041 | 12609 ft | 318 kts | 298° |
| 2026-05-06 12:20 | 59.78527 | 18.74221 | 12007 ft | 314 kts | 298° |
| 2026-05-06 12:21 | 59.79573 | 18.70457 | 11405 ft | 309 kts | 298° |
| 2026-05-06 12:21 | 59.80603 | 18.66746 | 10804 ft | 305 kts | 298° |
| 2026-05-06 12:21 | 59.81621 | 18.63075 | 10206 ft | 301 kts | 298° |
| 2026-05-06 12:21 | 59.82626 | 18.59442 | 9605 ft | 298 kts | 298° |
| 2026-05-06 12:22 | 59.83615 | 18.55850 | 8997 ft | 294 kts | 298° |
| 2026-05-06 12:22 | 59.84578 | 18.52350 | 8398 ft | 291 kts | 298° |
| 2026-05-06 12:22 | 59.85541 | 18.48846 | 7793 ft | 287 kts | 298° |
| 2026-05-06 12:22 | 59.86453 | 18.45521 | 7211 ft | 284 kts | 298° |
| 2026-05-06 12:23 | 59.87314 | 18.42382 | 6682 ft | 280 kts | 298° |
| 2026-05-06 12:23 | 59.88221 | 18.39071 | 6358 ft | 266 kts | 298° |
| 2026-05-06 12:23 | 59.88877 | 18.35868 | 6329 ft | 243 kts | 275° |
| 2026-05-06 12:23 | 59.88702 | 18.32637 | 6177 ft | 228 kts | 257° |
| 2026-05-06 12:24 | 59.88312 | 18.29650 | 5892 ft | 223 kts | 251° |
| 2026-05-06 12:24 | 59.87716 | 18.26775 | 5301 ft | 232 kts | 242° |
| 2026-05-06 12:24 | 59.86975 | 18.24158 | 4928 ft | 230 kts | 239° |
| 2026-05-06 12:24 | 59.86144 | 18.21459 | 4554 ft | 227 kts | 237° |
| 2026-05-06 12:25 | 59.85312 | 18.18824 | 4194 ft | 222 kts | 237° |
| 2026-05-06 12:25 | 59.84513 | 18.16245 | 3856 ft | 218 kts | 238° |
| 2026-05-06 12:25 | 59.83733 | 18.13685 | 3538 ft | 215 kts | 239° |
| 2026-05-06 12:25 | 59.82970 | 18.11134 | 3229 ft | 213 kts | 239° |
| 2026-05-06 12:26 | 59.82302 | 18.08880 | 3008 ft | 208 kts | 239° |
| 2026-05-06 12:26 | 59.81586 | 18.06433 | 2823 ft | 200 kts | 239° |
| 2026-05-06 12:26 | 59.80910 | 18.04102 | 2590 ft | 190 kts | 240° |
| 2026-05-06 12:26 | 59.80226 | 18.01912 | 2309 ft | 184 kts | 227° |
| 2026-05-06 12:27 | 59.79126 | 18.00850 | 2138 ft | 172 kts | 192° |
| 2026-05-06 12:27 | 59.78058 | 18.00452 | 2131 ft | 142 kts | 189° |
| 2026-05-06 12:27 | 59.77081 | 18.00096 | 2094 ft | 140 kts | 191° |
| 2026-05-06 12:27 | 59.76140 | 17.99778 | 1794 ft | 136 kts | 189° |
| 2026-05-06 12:28 | 59.75260 | 17.99509 | 1618 ft | 119 kts | 189° |
| 2026-05-06 12:28 | 59.74370 | 17.99251 | 1603 ft | 132 kts | 188° |
| 2026-05-06 12:28 | 59.73470 | 17.98984 | 1598 ft | 132 kts | 189° |
| 2026-05-06 12:28 | 59.72593 | 17.98698 | 1624 ft | 128 kts | 190° |
| 2026-05-06 12:29 | 59.71698 | 17.98384 | 1661 ft | 133 kts | 191° |
| 2026-05-06 12:29 | 59.70757 | 17.98035 | 1599 ft | 145 kts | 192° |
| 2026-05-06 12:29 | 59.69750 | 17.97643 | 1583 ft | 152 kts | 191° |
| 2026-05-06 12:29 | 59.68789 | 17.97270 | 1154 ft | 145 kts | 191° |
| 2026-05-06 12:30 | 59.67840 | 17.96925 | 786 ft | 132 kts | 191° |
| 2026-05-06 12:30 | 59.66969 | 17.96619 | 572 ft | 132 kts | 190° |
| 2026-05-06 12:30 | 59.66057 | 17.96308 | 434 ft | 132 kts | 191° |
| 2026-05-06 12:30 | 59.65175 | 17.95992 | 238 ft | 127 kts | 191° |
| 2026-05-06 12:31 | 59.64351 | 17.95685 | 143 ft | 105 kts | 191° |
| 2026-05-06 12:31 | 59.64051 | 17.95574 | 142 ft | 0 kts | 190° |
| 2026-05-06 12:31 | 59.64032 | 17.95568 | 142 ft | 16 kts | 191° |
| 2026-05-06 12:32 | 59.63903 | 17.95528 | 143 ft | 21 kts | 188° |
| 2026-05-06 12:32 | 59.63743 | 17.95477 | 143 ft | 25 kts | 190° |
| 2026-05-06 12:32 | 59.63553 | 17.95409 | 142 ft | 30 kts | 190° |
| 2026-05-06 12:32 | 59.63357 | 17.95222 | 138 ft | 34 kts | 218° |
| 2026-05-06 12:33 | 59.63246 | 17.94951 | 136 ft | 12 kts | 294° |
| 2026-05-06 12:33 | 59.63285 | 17.94912 | 136 ft | 6 kts | 354° |
| 2026-05-06 12:33 | 59.63331 | 17.94916 | 136 ft | 7 kts | 8° |
| 2026-05-06 12:33 | 59.63415 | 17.94949 | 136 ft | 17 kts | 11° |
| 2026-05-06 12:34 | 59.63560 | 17.95003 | 136 ft | 25 kts | 10° |
| 2026-05-06 12:34 | 59.63746 | 17.95070 | 136 ft | 29 kts | 10° |
| 2026-05-06 12:34 | 59.63957 | 17.95144 | 136 ft | 31 kts | 10° |
| 2026-05-06 12:34 | 59.64172 | 17.95221 | 136 ft | 31 kts | 11° |
| 2026-05-06 12:35 | 59.64384 | 17.95299 | 136 ft | 30 kts | 10° |
| 2026-05-06 12:35 | 59.64588 | 17.95374 | 136 ft | 29 kts | 10° |
| 2026-05-06 12:35 | 59.64787 | 17.95446 | 136 ft | 29 kts | 10° |
| 2026-05-06 12:35 | 59.64969 | 17.95511 | 136 ft | 25 kts | 7° |
| 2026-05-06 12:36 | 59.65137 | 17.95464 | 136 ft | 24 kts | 346° |
| 2026-05-06 12:36 | 59.65297 | 17.95383 | 136 ft | 24 kts | 345° |
| 2026-05-06 12:36 | 59.65457 | 17.95299 | 136 ft | 24 kts | 345° |
| 2026-05-06 12:36 | 59.65615 | 17.95213 | 136 ft | 23 kts | 344° |
| 2026-05-06 12:37 | 59.65749 | 17.95074 | 136 ft | 21 kts | 281° |
| 2026-05-06 12:37 | 59.65722 | 17.94798 | 136 ft | 20 kts | 256° |
| 2026-05-06 12:37 | 59.65687 | 17.94529 | 136 ft | 20 kts | 255° |
| 2026-05-06 12:37 | 59.65652 | 17.94259 | 136 ft | 20 kts | 256° |
| 2026-05-06 12:38 | 59.65618 | 17.93988 | 136 ft | 20 kts | 256° |
| 2026-05-06 12:38 | 59.65584 | 17.93720 | 136 ft | 20 kts | 255° |
| 2026-05-06 12:38 | 59.65550 | 17.93454 | 136 ft | 20 kts | 255° |
| 2026-05-06 12:38 | 59.65456 | 17.93340 | 136 ft | 12 kts | 173° |
| 2026-05-06 12:39 | 59.65389 | 17.93373 | 136 ft | 6 kts | 154° |
| 2026-05-06 12:39 | 59.65386 | 17.93380 | 136 ft | 1 kts | 123° |
| 2026-05-06 12:39 | 59.65384 | 17.93444 | 136 ft | 6 kts | 74° |
| 2026-05-06 12:39 | 59.65396 | 17.93533 | 136 ft | 4 kts | 75° |
| 2026-05-06 12:40 | 59.65398 | 17.93543 | 136 ft | 1 kts | 75° |
| 2026-05-06 12:40 | 59.65400 | 17.93562 | 136 ft | 2 kts | 75° |
| 2026-05-06 12:40 | 59.65401 | 17.93568 | 136 ft | 0 kts | 75° |
| 2026-05-06 12:40 | 59.65396 | 17.93531 | 136 ft | 0 kts | 75° |